sensor_id;sensor_type;location;lat;lon;timestamp;temperature;humidity
17529;DHT22;8882;53.192;8.184;2023-01-15T00:01:41;6.40;99.90
17529;DHT22;8882;53.192;8.184;2023-01-15T00:04:07;6.40;99.90
17529;DHT22;8882;53.192;8.184;2023-01-15T00:06:38;6.40;99.90
17529;DHT22;8882;53.192;8.184;2023-01-15T00:09:05;6.40;99.90
17529;DHT22;8882;53.192;8.184;2023-01-15T00:11:31;6.50;99.90
17529;DHT22;8882;53.192;8.184;2023-01-15T00:13:56;6.50;99.90
17529;DHT22;8882;53.192;8.184;2023-01-15T00:16:23;6.40;99.90
17529;DHT22;8882;53.192;8.184;2023-01-15T00:18:57;6.50;99.90
17529;DHT22;8882;53.192;8.184;2023-01-15T00:21:24;6.50;99.90
17529;DHT22;8882;53.192;8.184;2023-01-15T00:23:50;6.50;99.90
17529;DHT22;8882;53.192;8.184;2023-01-15T00:26:35;6.40;99.90
17529;DHT22;8882;53.192;8.184;2023-01-15T00:29:21;6.40;99.90
17529;DHT22;8882;53.192;8.184;2023-01-15T00:31:58;6.50;99.90
17529;DHT22;8882;53.192;8.184;2023-01-15T00:34:25;6.50;99.90
17529;DHT22;8882;53.192;8.184;2023-01-15T00:36:51;6.40;99.90
17529;DHT22;8882;53.192;8.184;2023-01-15T00:39:17;6.40;99.90
17529;DHT22;8882;53.192;8.184;2023-01-15T00:41:43;6.40;99.90
17529;DHT22;8882;53.192;8.184;2023-01-15T00:44:08;6.40;99.90
17529;DHT22;8882;53.192;8.184;2023-01-15T00:46:34;6.40;99.90
17529;DHT22;8882;53.192;8.184;2023-01-15T00:49:00;6.40;99.90
17529;DHT22;8882;53.192;8.184;2023-01-15T00:51:26;6.40;99.90
17529;DHT22;8882;53.192;8.184;2023-01-15T00:53:51;6.30;99.90
17529;DHT22;8882;53.192;8.184;2023-01-15T00:56:17;6.40;99.90
17529;DHT22;8882;53.192;8.184;2023-01-15T00:58:42;6.30;99.90
17529;DHT22;8882;53.192;8.184;2023-01-15T01:01:08;6.40;99.90
17529;DHT22;8882;53.192;8.184;2023-01-15T01:03:33;6.30;99.90
17529;DHT22;8882;53.192;8.184;2023-01-15T01:06:02;6.30;99.90
17529;DHT22;8882;53.192;8.184;2023-01-15T01:08:29;6.30;99.90
17529;DHT22;8882;53.192;8.184;2023-01-15T01:11:01;6.30;99.90
17529;DHT22;8882;53.192;8.184;2023-01-15T01:13:27;6.30;99.90
17529;DHT22;8882;53.192;8.184;2023-01-15T01:15:52;6.30;99.90
17529;DHT22;8882;53.192;8.184;2023-01-15T01:18:17;6.30;99.90
17529;DHT22;8882;53.192;8.184;2023-01-15T01:20:43;6.30;99.90
17529;DHT22;8882;53.192;8.184;2023-01-15T01:23:08;6.30;99.90
17529;DHT22;8882;53.192;8.184;2023-01-15T01:25:35;6.30;99.90
17529;DHT22;8882;53.192;8.184;2023-01-15T01:28:00;6.30;99.90
17529;DHT22;8882;53.192;8.184;2023-01-15T01:30:26;6.30;99.90
17529;DHT22;8882;53.192;8.184;2023-01-15T01:32:51;6.20;99.90
17529;DHT22;8882;53.192;8.184;2023-01-15T01:35:17;6.30;99.90
17529;DHT22;8882;53.192;8.184;2023-01-15T01:37:42;6.30;99.90
17529;DHT22;8882;53.192;8.184;2023-01-15T01:40:08;6.30;99.90
17529;DHT22;8882;53.192;8.184;2023-01-15T01:42:34;6.30;99.90
17529;DHT22;8882;53.192;8.184;2023-01-15T01:45:04;6.30;99.90
17529;DHT22;8882;53.192;8.184;2023-01-15T01:47:31;6.30;99.90
17529;DHT22;8882;53.192;8.184;2023-01-15T01:50:02;6.30;99.90
17529;DHT22;8882;53.192;8.184;2023-01-15T01:52:36;6.30;99.90
17529;DHT22;8882;53.192;8.184;2023-01-15T01:55:04;6.30;99.90
17529;DHT22;8882;53.192;8.184;2023-01-15T01:57:31;6.30;99.90
17529;DHT22;8882;53.192;8.184;2023-01-15T01:59:58;6.30;99.90
17529;DHT22;8882;53.192;8.184;2023-01-15T02:02:25;6.30;99.90
17529;DHT22;8882;53.192;8.184;2023-01-15T02:04:51;6.30;99.90
17529;DHT22;8882;53.192;8.184;2023-01-15T02:07:17;6.30;99.90
17529;DHT22;8882;53.192;8.184;2023-01-15T02:09:42;6.30;99.90
17529;DHT22;8882;53.192;8.184;2023-01-15T02:17:37;6.30;99.90
17529;DHT22;8882;53.192;8.184;2023-01-15T02:20:33;6.30;99.90
17529;DHT22;8882;53.192;8.184;2023-01-15T02:29:12;6.30;99.90
17529;DHT22;8882;53.192;8.184;2023-01-15T02:31:42;6.30;99.90
17529;DHT22;8882;53.192;8.184;2023-01-15T02:34:23;6.30;99.90
17529;DHT22;8882;53.192;8.184;2023-01-15T02:36:58;6.30;99.90
17529;DHT22;8882;53.192;8.184;2023-01-15T02:39:27;6.30;99.90
17529;DHT22;8882;53.192;8.184;2023-01-15T02:41:55;6.30;99.90
17529;DHT22;8882;53.192;8.184;2023-01-15T02:44:24;6.30;99.90
17529;DHT22;8882;53.192;8.184;2023-01-15T02:46:51;6.30;99.90
17529;DHT22;8882;53.192;8.184;2023-01-15T02:49:19;6.30;99.90
17529;DHT22;8882;53.192;8.184;2023-01-15T02:52:05;6.30;99.90
17529;DHT22;8882;53.192;8.184;2023-01-15T02:54:45;6.30;99.90
17529;DHT22;8882;53.192;8.184;2023-01-15T02:57:13;6.30;99.90
17529;DHT22;8882;53.192;8.184;2023-01-15T02:59:43;6.30;99.90
17529;DHT22;8882;53.192;8.184;2023-01-15T03:02:17;6.30;99.90
17529;DHT22;8882;53.192;8.184;2023-01-15T03:05:21;6.20;99.90
17529;DHT22;8882;53.192;8.184;2023-01-15T03:07:58;6.20;99.90
17529;DHT22;8882;53.192;8.184;2023-01-15T03:10:32;6.20;99.90
17529;DHT22;8882;53.192;8.184;2023-01-15T03:13:01;6.20;99.90
17529;DHT22;8882;53.192;8.184;2023-01-15T03:16:01;6.20;99.90
17529;DHT22;8882;53.192;8.184;2023-01-15T03:18:54;6.10;99.90
17529;DHT22;8882;53.192;8.184;2023-01-15T03:21:25;6.20;99.90
17529;DHT22;8882;53.192;8.184;2023-01-15T03:23:53;6.20;99.90
17529;DHT22;8882;53.192;8.184;2023-01-15T03:26:20;6.20;99.90
17529;DHT22;8882;53.192;8.184;2023-01-15T03:28:46;6.20;99.90
17529;DHT22;8882;53.192;8.184;2023-01-15T03:31:13;6.20;99.90
17529;DHT22;8882;53.192;8.184;2023-01-15T03:33:39;6.10;99.90
17529;DHT22;8882;53.192;8.184;2023-01-15T03:36:05;6.20;99.90
17529;DHT22;8882;53.192;8.184;2023-01-15T03:38:36;6.20;99.90
17529;DHT22;8882;53.192;8.184;2023-01-15T03:41:26;6.20;99.90
17529;DHT22;8882;53.192;8.184;2023-01-15T03:44:23;6.20;99.90
17529;DHT22;8882;53.192;8.184;2023-01-15T03:50:16;6.20;99.90
17529;DHT22;8882;53.192;8.184;2023-01-15T03:53:01;6.20;99.90
17529;DHT22;8882;53.192;8.184;2023-01-15T03:56:01;6.20;99.90
17529;DHT22;8882;53.192;8.184;2023-01-15T04:01:15;6.20;99.90
17529;DHT22;8882;53.192;8.184;2023-01-15T04:03:42;6.30;99.90
17529;DHT22;8882;53.192;8.184;2023-01-15T04:06:10;6.30;99.90
17529;DHT22;8882;53.192;8.184;2023-01-15T04:08:38;6.30;99.90
17529;DHT22;8882;53.192;8.184;2023-01-15T04:11:05;6.30;99.90
17529;DHT22;8882;53.192;8.184;2023-01-15T04:13:31;6.30;99.90
17529;DHT22;8882;53.192;8.184;2023-01-15T04:15:56;6.30;99.90
17529;DHT22;8882;53.192;8.184;2023-01-15T04:18:22;6.30;99.90
17529;DHT22;8882;53.192;8.184;2023-01-15T04:20:49;6.30;99.90
17529;DHT22;8882;53.192;8.184;2023-01-15T04:23:14;6.30;99.90
17529;DHT22;8882;53.192;8.184;2023-01-15T04:25:40;6.30;99.90
17529;DHT22;8882;53.192;8.184;2023-01-15T04:28:06;6.30;99.90
17529;DHT22;8882;53.192;8.184;2023-01-15T04:30:33;6.20;99.90
17529;DHT22;8882;53.192;8.184;2023-01-15T04:32:58;6.20;99.90
17529;DHT22;8882;53.192;8.184;2023-01-15T04:35:24;6.20;99.90
17529;DHT22;8882;53.192;8.184;2023-01-15T04:37:56;6.20;99.90
17529;DHT22;8882;53.192;8.184;2023-01-15T04:40:22;6.20;99.90
17529;DHT22;8882;53.192;8.184;2023-01-15T04:43:09;6.10;99.90
17529;DHT22;8882;53.192;8.184;2023-01-15T04:45:53;6.20;99.90
17529;DHT22;8882;53.192;8.184;2023-01-15T04:48:19;6.10;99.90
17529;DHT22;8882;53.192;8.184;2023-01-15T04:50:45;6.10;99.90
17529;DHT22;8882;53.192;8.184;2023-01-15T04:53:10;6.10;99.90
17529;DHT22;8882;53.192;8.184;2023-01-15T04:55:35;6.10;99.90
17529;DHT22;8882;53.192;8.184;2023-01-15T04:58:01;6.10;99.90
17529;DHT22;8882;53.192;8.184;2023-01-15T05:00:27;6.10;99.90
17529;DHT22;8882;53.192;8.184;2023-01-15T05:02:52;6.10;99.90
17529;DHT22;8882;53.192;8.184;2023-01-15T05:05:18;6.20;99.90
17529;DHT22;8882;53.192;8.184;2023-01-15T05:07:43;6.10;99.90
17529;DHT22;8882;53.192;8.184;2023-01-15T05:10:09;6.10;99.90
17529;DHT22;8882;53.192;8.184;2023-01-15T05:12:35;6.10;99.90
17529;DHT22;8882;53.192;8.184;2023-01-15T05:15:00;6.10;99.90
17529;DHT22;8882;53.192;8.184;2023-01-15T05:17:26;6.10;99.90
17529;DHT22;8882;53.192;8.184;2023-01-15T05:19:51;6.10;99.90
17529;DHT22;8882;53.192;8.184;2023-01-15T05:22:17;6.10;99.90
17529;DHT22;8882;53.192;8.184;2023-01-15T05:24:42;6.10;99.90
17529;DHT22;8882;53.192;8.184;2023-01-15T05:27:08;6.10;99.90
17529;DHT22;8882;53.192;8.184;2023-01-15T05:29:34;6.00;99.90
17529;DHT22;8882;53.192;8.184;2023-01-15T05:32:00;6.10;99.90
17529;DHT22;8882;53.192;8.184;2023-01-15T05:34:25;6.10;99.90
17529;DHT22;8882;53.192;8.184;2023-01-15T05:36:51;6.10;99.90
17529;DHT22;8882;53.192;8.184;2023-01-15T05:39:17;6.10;99.90
17529;DHT22;8882;53.192;8.184;2023-01-15T05:41:42;6.00;99.90
17529;DHT22;8882;53.192;8.184;2023-01-15T05:44:25;6.00;99.90
17529;DHT22;8882;53.192;8.184;2023-01-15T05:46:53;6.00;99.90
17529;DHT22;8882;53.192;8.184;2023-01-15T05:49:21;6.00;99.90
17529;DHT22;8882;53.192;8.184;2023-01-15T05:51:48;6.00;99.90
17529;DHT22;8882;53.192;8.184;2023-01-15T05:54:17;6.00;99.90
17529;DHT22;8882;53.192;8.184;2023-01-15T05:56:43;6.00;99.90
17529;DHT22;8882;53.192;8.184;2023-01-15T05:59:10;6.00;99.90
17529;DHT22;8882;53.192;8.184;2023-01-15T06:01:37;6.00;99.90
17529;DHT22;8882;53.192;8.184;2023-01-15T06:04:04;6.00;99.90
17529;DHT22;8882;53.192;8.184;2023-01-15T06:06:30;5.90;99.90
17529;DHT22;8882;53.192;8.184;2023-01-15T06:08:56;5.90;99.90
17529;DHT22;8882;53.192;8.184;2023-01-15T06:11:22;5.90;99.90
17529;DHT22;8882;53.192;8.184;2023-01-15T06:13:47;6.00;99.90
17529;DHT22;8882;53.192;8.184;2023-01-15T06:16:13;6.00;99.90
17529;DHT22;8882;53.192;8.184;2023-01-15T06:18:39;5.90;99.90
17529;DHT22;8882;53.192;8.184;2023-01-15T06:21:10;5.90;99.90
17529;DHT22;8882;53.192;8.184;2023-01-15T06:23:36;5.90;99.90
17529;DHT22;8882;53.192;8.184;2023-01-15T06:26:04;5.90;99.90
17529;DHT22;8882;53.192;8.184;2023-01-15T06:28:30;5.90;99.90
17529;DHT22;8882;53.192;8.184;2023-01-15T06:30:56;5.90;99.90
17529;DHT22;8882;53.192;8.184;2023-01-15T06:33:21;5.90;99.90
17529;DHT22;8882;53.192;8.184;2023-01-15T06:35:47;5.80;99.90
17529;DHT22;8882;53.192;8.184;2023-01-15T06:38:13;5.80;99.90
17529;DHT22;8882;53.192;8.184;2023-01-15T06:40:38;5.80;99.90
17529;DHT22;8882;53.192;8.184;2023-01-15T06:43:04;5.80;99.90
17529;DHT22;8882;53.192;8.184;2023-01-15T06:45:48;5.70;99.90
17529;DHT22;8882;53.192;8.184;2023-01-15T06:48:32;5.70;99.90
17529;DHT22;8882;53.192;8.184;2023-01-15T06:50:58;5.70;99.90
17529;DHT22;8882;53.192;8.184;2023-01-15T06:53:24;5.60;99.90
17529;DHT22;8882;53.192;8.184;2023-01-15T06:55:49;5.60;99.90
17529;DHT22;8882;53.192;8.184;2023-01-15T06:58:15;5.60;99.90
17529;DHT22;8882;53.192;8.184;2023-01-15T07:00:40;5.60;99.90
17529;DHT22;8882;53.192;8.184;2023-01-15T07:03:07;5.60;99.90
17529;DHT22;8882;53.192;8.184;2023-01-15T07:05:33;5.50;99.90
17529;DHT22;8882;53.192;8.184;2023-01-15T07:07:58;5.50;99.90
17529;DHT22;8882;53.192;8.184;2023-01-15T07:10:24;5.50;99.90
17529;DHT22;8882;53.192;8.184;2023-01-15T07:12:50;5.50;99.90
17529;DHT22;8882;53.192;8.184;2023-01-15T07:15:15;5.40;99.90
17529;DHT22;8882;53.192;8.184;2023-01-15T07:17:41;5.50;99.90
17529;DHT22;8882;53.192;8.184;2023-01-15T07:20:07;5.40;99.90
17529;DHT22;8882;53.192;8.184;2023-01-15T07:22:32;5.40;99.90
17529;DHT22;8882;53.192;8.184;2023-01-15T07:24:58;5.40;99.90
17529;DHT22;8882;53.192;8.184;2023-01-15T07:27:23;5.40;99.90
17529;DHT22;8882;53.192;8.184;2023-01-15T07:29:49;5.40;99.90
17529;DHT22;8882;53.192;8.184;2023-01-15T07:32:16;5.40;99.90
17529;DHT22;8882;53.192;8.184;2023-01-15T07:34:42;5.40;99.90
17529;DHT22;8882;53.192;8.184;2023-01-15T07:37:07;5.40;99.90
17529;DHT22;8882;53.192;8.184;2023-01-15T07:39:33;5.40;99.90
17529;DHT22;8882;53.192;8.184;2023-01-15T07:41:59;5.30;99.90
17529;DHT22;8882;53.192;8.184;2023-01-15T07:44:43;5.30;99.90
17529;DHT22;8882;53.192;8.184;2023-01-15T07:47:27;5.30;99.90
17529;DHT22;8882;53.192;8.184;2023-01-15T07:50:14;5.30;99.90
17529;DHT22;8882;53.192;8.184;2023-01-15T07:52:40;5.30;99.90
17529;DHT22;8882;53.192;8.184;2023-01-15T07:55:05;5.30;99.90
17529;DHT22;8882;53.192;8.184;2023-01-15T07:57:32;5.30;99.90
17529;DHT22;8882;53.192;8.184;2023-01-15T07:59:58;5.30;99.90
17529;DHT22;8882;53.192;8.184;2023-01-15T08:02:24;5.30;99.90
17529;DHT22;8882;53.192;8.184;2023-01-15T08:04:49;5.30;99.90
17529;DHT22;8882;53.192;8.184;2023-01-15T08:07:15;5.40;99.90
17529;DHT22;8882;53.192;8.184;2023-01-15T08:09:41;5.40;99.90
17529;DHT22;8882;53.192;8.184;2023-01-15T08:12:06;5.40;99.90
17529;DHT22;8882;53.192;8.184;2023-01-15T08:14:51;5.30;99.90
17529;DHT22;8882;53.192;8.184;2023-01-15T08:17:40;5.30;99.90
17529;DHT22;8882;53.192;8.184;2023-01-15T08:20:10;5.30;99.90
17529;DHT22;8882;53.192;8.184;2023-01-15T08:22:36;5.40;99.90
17529;DHT22;8882;53.192;8.184;2023-01-15T08:25:03;5.30;99.90
17529;DHT22;8882;53.192;8.184;2023-01-15T08:27:28;5.30;99.90
17529;DHT22;8882;53.192;8.184;2023-01-15T08:29:55;5.30;99.90
17529;DHT22;8882;53.192;8.184;2023-01-15T08:32:21;5.30;99.90
17529;DHT22;8882;53.192;8.184;2023-01-15T08:34:47;5.40;99.90
17529;DHT22;8882;53.192;8.184;2023-01-15T08:37:12;5.40;99.90
17529;DHT22;8882;53.192;8.184;2023-01-15T08:39:38;5.40;99.90
17529;DHT22;8882;53.192;8.184;2023-01-15T08:42:03;5.40;99.90
17529;DHT22;8882;53.192;8.184;2023-01-15T08:44:29;5.40;99.90
17529;DHT22;8882;53.192;8.184;2023-01-15T08:46:54;5.40;99.90
17529;DHT22;8882;53.192;8.184;2023-01-15T08:49:20;5.40;99.90
17529;DHT22;8882;53.192;8.184;2023-01-15T08:51:46;5.50;99.90
17529;DHT22;8882;53.192;8.184;2023-01-15T08:54:19;5.40;99.90
17529;DHT22;8882;53.192;8.184;2023-01-15T08:56:45;5.50;99.90
17529;DHT22;8882;53.192;8.184;2023-01-15T08:59:11;5.60;99.90
17529;DHT22;8882;53.192;8.184;2023-01-15T09:01:37;5.60;99.90
17529;DHT22;8882;53.192;8.184;2023-01-15T09:04:02;5.60;99.90
17529;DHT22;8882;53.192;8.184;2023-01-15T09:06:30;5.60;99.90
17529;DHT22;8882;53.192;8.184;2023-01-15T09:08:58;5.60;99.90
17529;DHT22;8882;53.192;8.184;2023-01-15T09:11:24;5.60;99.90
17529;DHT22;8882;53.192;8.184;2023-01-15T09:13:49;5.60;99.90
17529;DHT22;8882;53.192;8.184;2023-01-15T09:16:16;5.70;99.90
17529;DHT22;8882;53.192;8.184;2023-01-15T09:18:42;5.70;99.90
17529;DHT22;8882;53.192;8.184;2023-01-15T09:21:07;5.70;99.90
17529;DHT22;8882;53.192;8.184;2023-01-15T09:23:33;5.70;99.90
17529;DHT22;8882;53.192;8.184;2023-01-15T09:26:01;5.70;99.90
17529;DHT22;8882;53.192;8.184;2023-01-15T09:28:29;5.80;99.90
17529;DHT22;8882;53.192;8.184;2023-01-15T09:30:55;5.80;99.90
17529;DHT22;8882;53.192;8.184;2023-01-15T09:33:20;5.90;99.90
17529;DHT22;8882;53.192;8.184;2023-01-15T09:35:46;5.90;99.90
17529;DHT22;8882;53.192;8.184;2023-01-15T09:38:13;5.90;99.90
17529;DHT22;8882;53.192;8.184;2023-01-15T09:40:46;5.90;99.90
17529;DHT22;8882;53.192;8.184;2023-01-15T09:43:33;6.00;99.90
17529;DHT22;8882;53.192;8.184;2023-01-15T09:51:30;6.00;99.90
17529;DHT22;8882;53.192;8.184;2023-01-15T09:54:18;6.10;99.90
17529;DHT22;8882;53.192;8.184;2023-01-15T09:56:45;6.10;99.90
17529;DHT22;8882;53.192;8.184;2023-01-15T09:59:37;6.00;99.90
17529;DHT22;8882;53.192;8.184;2023-01-15T10:02:29;6.00;99.90
17529;DHT22;8882;53.192;8.184;2023-01-15T10:05:07;6.00;99.90
17529;DHT22;8882;53.192;8.184;2023-01-15T10:07:42;6.00;99.90
17529;DHT22;8882;53.192;8.184;2023-01-15T10:10:14;5.90;99.90
17529;DHT22;8882;53.192;8.184;2023-01-15T10:12:43;5.90;99.90
17529;DHT22;8882;53.192;8.184;2023-01-15T10:17:40;5.90;99.90
17529;DHT22;8882;53.192;8.184;2023-01-15T10:23:35;5.80;99.90
17529;DHT22;8882;53.192;8.184;2023-01-15T10:26:22;5.70;99.90
17529;DHT22;8882;53.192;8.184;2023-01-15T10:29:00;5.60;99.90
17529;DHT22;8882;53.192;8.184;2023-01-15T10:31:51;5.50;99.90
17529;DHT22;8882;53.192;8.184;2023-01-15T10:37:23;5.10;99.90
17529;DHT22;8882;53.192;8.184;2023-01-15T10:45:25;4.90;99.90
17529;DHT22;8882;53.192;8.184;2023-01-15T10:50:33;4.70;99.90
17529;DHT22;8882;53.192;8.184;2023-01-15T10:53:12;4.80;99.90
17529;DHT22;8882;53.192;8.184;2023-01-15T10:55:44;5.00;99.90
17529;DHT22;8882;53.192;8.184;2023-01-15T10:58:15;5.20;99.90
17529;DHT22;8882;53.192;8.184;2023-01-15T11:00:51;5.30;99.90
17529;DHT22;8882;53.192;8.184;2023-01-15T11:03:23;5.50;99.90
17529;DHT22;8882;53.192;8.184;2023-01-15T11:05:54;5.60;99.90
17529;DHT22;8882;53.192;8.184;2023-01-15T11:08:24;5.60;99.90
17529;DHT22;8882;53.192;8.184;2023-01-15T11:10:56;5.60;99.90
17529;DHT22;8882;53.192;8.184;2023-01-15T11:13:25;5.50;99.90
17529;DHT22;8882;53.192;8.184;2023-01-15T11:16:14;5.50;99.90
17529;DHT22;8882;53.192;8.184;2023-01-15T11:19:29;5.50;99.90
17529;DHT22;8882;53.192;8.184;2023-01-15T11:27:19;5.50;99.90
17529;DHT22;8882;53.192;8.184;2023-01-15T11:29:45;5.40;99.90
17529;DHT22;8882;53.192;8.184;2023-01-15T11:32:33;5.40;99.90
17529;DHT22;8882;53.192;8.184;2023-01-15T11:35:01;5.20;99.90
17529;DHT22;8882;53.192;8.184;2023-01-15T11:37:27;5.20;99.90
17529;DHT22;8882;53.192;8.184;2023-01-15T11:39:58;5.10;99.90
17529;DHT22;8882;53.192;8.184;2023-01-15T11:42:35;5.00;99.90
17529;DHT22;8882;53.192;8.184;2023-01-15T11:45:21;4.90;99.90
17529;DHT22;8882;53.192;8.184;2023-01-15T11:48:15;4.70;99.90
17529;DHT22;8882;53.192;8.184;2023-01-15T11:53:38;4.70;99.90
17529;DHT22;8882;53.192;8.184;2023-01-15T11:56:08;4.70;99.90
17529;DHT22;8882;53.192;8.184;2023-01-15T11:58:45;4.80;99.90
17529;DHT22;8882;53.192;8.184;2023-01-15T12:03:49;5.00;99.90
17529;DHT22;8882;53.192;8.184;2023-01-15T12:06:18;5.00;99.90
17529;DHT22;8882;53.192;8.184;2023-01-15T12:11:30;5.00;99.90
17529;DHT22;8882;53.192;8.184;2023-01-15T12:17:28;5.10;99.90
17529;DHT22;8882;53.192;8.184;2023-01-15T12:20:17;5.20;99.90
17529;DHT22;8882;53.192;8.184;2023-01-15T12:23:21;5.30;99.90
17529;DHT22;8882;53.192;8.184;2023-01-15T12:26:07;5.30;99.90
17529;DHT22;8882;53.192;8.184;2023-01-15T12:28:39;5.50;99.90
17529;DHT22;8882;53.192;8.184;2023-01-15T12:31:11;5.50;99.90
17529;DHT22;8882;53.192;8.184;2023-01-15T12:34:05;5.70;99.90
17529;DHT22;8882;53.192;8.184;2023-01-15T12:36:49;5.80;99.90
17529;DHT22;8882;53.192;8.184;2023-01-15T12:39:23;5.90;99.90
17529;DHT22;8882;53.192;8.184;2023-01-15T12:41:56;6.00;99.90
17529;DHT22;8882;53.192;8.184;2023-01-15T12:44:52;6.10;99.90
17529;DHT22;8882;53.192;8.184;2023-01-15T12:50:12;6.10;99.90
17529;DHT22;8882;53.192;8.184;2023-01-15T12:52:45;6.20;99.90
17529;DHT22;8882;53.192;8.184;2023-01-15T12:55:24;6.20;99.90
17529;DHT22;8882;53.192;8.184;2023-01-15T12:57:55;6.20;99.90
17529;DHT22;8882;53.192;8.184;2023-01-15T13:00:34;6.30;99.90
17529;DHT22;8882;53.192;8.184;2023-01-15T13:03:22;6.20;99.90
17529;DHT22;8882;53.192;8.184;2023-01-15T13:06:05;6.20;99.90
17529;DHT22;8882;53.192;8.184;2023-01-15T13:08:53;6.20;99.90
17529;DHT22;8882;53.192;8.184;2023-01-15T13:11:19;6.20;99.90
17529;DHT22;8882;53.192;8.184;2023-01-15T13:13:45;6.30;99.90
17529;DHT22;8882;53.192;8.184;2023-01-15T13:16:34;6.30;99.90
17529;DHT22;8882;53.192;8.184;2023-01-15T13:19:26;6.30;99.90
17529;DHT22;8882;53.192;8.184;2023-01-15T13:21:56;6.40;99.90
17529;DHT22;8882;53.192;8.184;2023-01-15T13:27:31;6.50;99.90
17529;DHT22;8882;53.192;8.184;2023-01-15T13:33:28;6.50;99.90
17529;DHT22;8882;53.192;8.184;2023-01-15T13:38:44;6.60;99.90
17529;DHT22;8882;53.192;8.184;2023-01-15T13:41:17;6.70;99.90
17529;DHT22;8882;53.192;8.184;2023-01-15T13:44:04;6.70;99.90
17529;DHT22;8882;53.192;8.184;2023-01-15T13:46:30;6.70;99.90
17529;DHT22;8882;53.192;8.184;2023-01-15T13:48:55;6.80;99.90
17529;DHT22;8882;53.192;8.184;2023-01-15T13:51:30;6.80;99.90
17529;DHT22;8882;53.192;8.184;2023-01-15T13:53:58;6.80;99.90
17529;DHT22;8882;53.192;8.184;2023-01-15T13:56:28;6.80;99.90
17529;DHT22;8882;53.192;8.184;2023-01-15T13:58:58;6.80;99.90
17529;DHT22;8882;53.192;8.184;2023-01-15T14:01:31;6.80;99.90
17529;DHT22;8882;53.192;8.184;2023-01-15T14:06:46;6.80;99.90
17529;DHT22;8882;53.192;8.184;2023-01-15T14:17:55;6.60;99.90
17529;DHT22;8882;53.192;8.184;2023-01-15T14:20:36;6.60;99.90
17529;DHT22;8882;53.192;8.184;2023-01-15T14:23:33;6.60;99.90
17529;DHT22;8882;53.192;8.184;2023-01-15T14:29:01;6.70;99.90
17529;DHT22;8882;53.192;8.184;2023-01-15T14:34:14;6.50;99.90
17529;DHT22;8882;53.192;8.184;2023-01-15T14:39:55;6.40;99.90
17529;DHT22;8882;53.192;8.184;2023-01-15T14:47:56;6.10;99.90
17529;DHT22;8882;53.192;8.184;2023-01-15T14:50:33;6.00;99.90
17529;DHT22;8882;53.192;8.184;2023-01-15T14:55:47;5.70;99.90
17529;DHT22;8882;53.192;8.184;2023-01-15T14:58:33;5.60;99.90
17529;DHT22;8882;53.192;8.184;2023-01-15T15:01:16;5.50;99.90
17529;DHT22;8882;53.192;8.184;2023-01-15T15:06:40;5.10;99.90
17529;DHT22;8882;53.192;8.184;2023-01-15T15:09:11;5.00;99.90
17529;DHT22;8882;53.192;8.184;2023-01-15T15:11:43;4.90;99.90
17529;DHT22;8882;53.192;8.184;2023-01-15T15:14:30;4.80;99.90
17529;DHT22;8882;53.192;8.184;2023-01-15T15:16:59;4.80;99.90
17529;DHT22;8882;53.192;8.184;2023-01-15T15:19:33;4.80;99.90
17529;DHT22;8882;53.192;8.184;2023-01-15T15:22:03;4.80;99.90
17529;DHT22;8882;53.192;8.184;2023-01-15T15:24:35;4.80;99.90
17529;DHT22;8882;53.192;8.184;2023-01-15T15:27:18;4.80;99.90
17529;DHT22;8882;53.192;8.184;2023-01-15T15:29:45;4.60;99.90
17529;DHT22;8882;53.192;8.184;2023-01-15T15:32:17;4.70;99.90
17529;DHT22;8882;53.192;8.184;2023-01-15T15:34:46;4.70;99.90
17529;DHT22;8882;53.192;8.184;2023-01-15T15:37:18;4.70;99.90
17529;DHT22;8882;53.192;8.184;2023-01-15T15:42:29;4.70;99.90
17529;DHT22;8882;53.192;8.184;2023-01-15T15:45:25;4.70;99.90
17529;DHT22;8882;53.192;8.184;2023-01-15T15:51:27;4.70;99.90
17529;DHT22;8882;53.192;8.184;2023-01-15T15:54:21;4.70;99.90
17529;DHT22;8882;53.192;8.184;2023-01-15T15:57:19;4.70;99.90
17529;DHT22;8882;53.192;8.184;2023-01-15T15:59:47;4.70;99.90
17529;DHT22;8882;53.192;8.184;2023-01-15T16:02:32;4.80;99.90
17529;DHT22;8882;53.192;8.184;2023-01-15T16:05:14;4.80;99.90
17529;DHT22;8882;53.192;8.184;2023-01-15T16:07:44;4.70;99.90
17529;DHT22;8882;53.192;8.184;2023-01-15T16:10:26;4.70;99.90
17529;DHT22;8882;53.192;8.184;2023-01-15T16:12:57;4.80;99.90
17529;DHT22;8882;53.192;8.184;2023-01-15T16:15:30;4.80;99.90
17529;DHT22;8882;53.192;8.184;2023-01-15T16:17:59;4.80;99.90
17529;DHT22;8882;53.192;8.184;2023-01-15T16:20:26;4.80;99.90
17529;DHT22;8882;53.192;8.184;2023-01-15T16:23:01;4.90;99.90
17529;DHT22;8882;53.192;8.184;2023-01-15T16:25:39;5.00;99.90
17529;DHT22;8882;53.192;8.184;2023-01-15T16:28:05;5.00;99.90
17529;DHT22;8882;53.192;8.184;2023-01-15T16:30:32;5.00;99.90
17529;DHT22;8882;53.192;8.184;2023-01-15T16:33:04;5.00;99.90
17529;DHT22;8882;53.192;8.184;2023-01-15T16:35:31;5.00;99.90
17529;DHT22;8882;53.192;8.184;2023-01-15T16:38:00;5.00;99.90
17529;DHT22;8882;53.192;8.184;2023-01-15T16:40:31;5.00;99.90
17529;DHT22;8882;53.192;8.184;2023-01-15T16:43:12;5.00;99.90
17529;DHT22;8882;53.192;8.184;2023-01-15T16:48:31;5.10;99.90
17529;DHT22;8882;53.192;8.184;2023-01-15T16:51:31;5.10;99.90
17529;DHT22;8882;53.192;8.184;2023-01-15T16:54:01;5.10;99.90
17529;DHT22;8882;53.192;8.184;2023-01-15T17:01:57;5.10;99.90
17529;DHT22;8882;53.192;8.184;2023-01-15T17:04:38;5.20;99.90
17529;DHT22;8882;53.192;8.184;2023-01-15T17:09:58;5.20;99.90
17529;DHT22;8882;53.192;8.184;2023-01-15T17:12:32;5.20;99.90
17529;DHT22;8882;53.192;8.184;2023-01-15T17:17:40;5.20;99.90
17529;DHT22;8882;53.192;8.184;2023-01-15T17:20:11;5.20;99.90
17529;DHT22;8882;53.192;8.184;2023-01-15T17:22:40;5.20;99.90
17529;DHT22;8882;53.192;8.184;2023-01-15T17:25:27;5.20;99.90
17529;DHT22;8882;53.192;8.184;2023-01-15T17:27:56;5.10;99.90
17529;DHT22;8882;53.192;8.184;2023-01-15T17:30:24;5.10;99.90
17529;DHT22;8882;53.192;8.184;2023-01-15T17:32:59;5.10;99.90
17529;DHT22;8882;53.192;8.184;2023-01-15T17:35:28;5.20;99.90
17529;DHT22;8882;53.192;8.184;2023-01-15T17:37:54;5.10;99.90
17529;DHT22;8882;53.192;8.184;2023-01-15T17:40:20;5.20;99.90
17529;DHT22;8882;53.192;8.184;2023-01-15T17:42:46;5.10;99.90
17529;DHT22;8882;53.192;8.184;2023-01-15T17:45:17;5.10;99.90
17529;DHT22;8882;53.192;8.184;2023-01-15T17:47:43;5.20;99.90
17529;DHT22;8882;53.192;8.184;2023-01-15T17:50:09;5.20;99.90
17529;DHT22;8882;53.192;8.184;2023-01-15T17:54:57;5.30;99.90
17529;DHT22;8882;53.192;8.184;2023-01-15T17:57:41;5.40;99.90
17529;DHT22;8882;53.192;8.184;2023-01-15T18:00:25;5.30;99.90
17529;DHT22;8882;53.192;8.184;2023-01-15T18:03:15;5.30;99.90
17529;DHT22;8882;53.192;8.184;2023-01-15T18:06:00;5.30;99.90
17529;DHT22;8882;53.192;8.184;2023-01-15T18:08:28;5.30;99.90
17529;DHT22;8882;53.192;8.184;2023-01-15T18:10:54;5.30;99.90
17529;DHT22;8882;53.192;8.184;2023-01-15T18:13:19;5.20;99.90
17529;DHT22;8882;53.192;8.184;2023-01-15T18:15:45;5.30;99.90
17529;DHT22;8882;53.192;8.184;2023-01-15T18:18:10;5.30;99.90
17529;DHT22;8882;53.192;8.184;2023-01-15T18:20:36;5.30;99.90
17529;DHT22;8882;53.192;8.184;2023-01-15T18:23:01;5.30;99.90
17529;DHT22;8882;53.192;8.184;2023-01-15T18:25:27;5.30;99.90
17529;DHT22;8882;53.192;8.184;2023-01-15T18:27:52;5.20;99.90
17529;DHT22;8882;53.192;8.184;2023-01-15T18:30:18;5.10;99.90
17529;DHT22;8882;53.192;8.184;2023-01-15T18:32:44;5.20;99.90